Time;durP1;ratioP1;P1;durP2;ratioP2;P2;SDS_P1;SDS_P2;PMS_P1;PMS_P2;Temp;Humidity;BMP_temperature;BMP_pressure;BME280_temperature;BME280_humidity;BME280_pressure;Samples;Min_cycle;Max_cycle;Signal;HPM_P1;HPM_P2
2023/09/29 00:00:17;;;;;;;14.00;9.60;;;16.90;99.90;;;;;;4885446;29;20239;-67
2023/09/29 00:02:47;;;;;;;11.43;8.23;;;16.90;99.90;;;;;;4865134;29;21286;-71
2023/09/29 00:05:17;;;;;;;16.08;9.75;;;16.70;99.90;;;;;;4857952;29;20699;-70
2023/09/29 00:07:45;;;;;;;13.27;9.13;;;16.60;99.90;;;;;;4863874;29;20197;-68
2023/09/29 00:10:15;;;;;;;13.52;9.35;;;16.60;99.90;;;;;;4859358;29;20210;-68
2023/09/29 00:12:43;;;;;;;11.27;8.82;;;16.70;99.90;;;;;;4860917;29;21284;-65
2023/09/29 00:15:11;;;;;;;16.45;9.38;;;16.80;99.90;;;;;;4866970;29;20229;-65
2023/09/29 00:17:38;;;;;;;14.35;9.10;;;16.90;99.90;;;;;;4873985;29;20746;-65
2023/09/29 00:20:23;;;;;;;15.13;10.57;;;16.90;99.90;;;;;;4866345;29;20210;-65
2023/09/29 00:22:58;;;;;;;16.70;9.30;;;16.80;99.90;;;;;;4858245;29;20194;-65
2023/09/29 00:25:26;;;;;;;12.60;8.85;;;16.90;99.90;;;;;;4861185;29;20202;-63
2023/09/29 00:27:53;;;;;;;13.57;8.77;;;16.90;99.90;;;;;;4858595;29;20201;-64
2023/09/29 00:30:21;;;;;;;11.10;8.82;;;16.90;99.90;;;;;;4883517;29;20292;-64
2023/09/29 00:32:53;;;;;;;12.80;8.80;;;16.80;99.90;;;;;;4881390;29;20810;-77
2023/09/29 00:35:24;;;;;;;12.23;8.55;;;16.90;99.90;;;;;;4864064;29;20208;-68
2023/09/29 00:37:59;;;;;;;11.77;9.00;;;16.90;99.90;;;;;;4865682;29;20284;-64
2023/09/29 00:40:28;;;;;;;17.92;9.02;;;17.00;99.90;;;;;;4851138;29;20217;-64
2023/09/29 00:42:57;;;;;;;14.15;9.68;;;17.10;99.90;;;;;;4866761;29;20199;-64
2023/09/29 00:45:26;;;;;;;12.73;9.05;;;17.10;99.90;;;;;;4884999;29;20603;-64
2023/09/29 00:47:56;;;;;;;12.93;8.77;;;17.20;99.90;;;;;;4872794;29;20207;-77
2023/09/29 00:50:26;;;;;;;11.13;8.32;;;17.20;99.90;;;;;;4882266;29;20289;-82
2023/09/29 00:52:58;;;;;;;12.45;8.77;;;17.20;99.90;;;;;;4865088;29;20213;-71
2023/09/29 00:55:28;;;;;;;12.43;8.43;;;17.20;99.90;;;;;;4879727;29;20233;-69
2023/09/29 00:57:59;;;;;;;13.13;8.13;;;17.20;99.90;;;;;;4865443;29;20201;-70
2023/09/29 01:03:06;;;;;;;11.27;8.20;;;17.20;99.90;;;;;;4863771;29;20206;-68
2023/09/29 01:05:38;;;;;;;11.65;8.93;;;17.10;99.90;;;;;;4862335;29;20260;-67
2023/09/29 01:08:09;;;;;;;13.32;9.00;;;17.00;99.90;;;;;;4863957;29;20198;-66
2023/09/29 01:10:36;;;;;;;13.00;8.55;;;17.00;99.90;;;;;;4866622;29;20198;-64
2023/09/29 01:13:04;;;;;;;15.38;8.35;;;16.90;99.90;;;;;;4879573;29;20556;-66
2023/09/29 01:15:33;;;;;;;12.93;8.73;;;16.80;99.90;;;;;;4861343;29;20237;-66
2023/09/29 01:18:01;;;;;;;14.73;10.25;;;16.70;99.90;;;;;;4870917;29;20228;-64
2023/09/29 01:20:32;;;;;;;17.40;9.43;;;16.70;99.90;;;;;;4878823;29;20245;-65
2023/09/29 01:23:01;;;;;;;13.25;9.07;;;16.70;99.90;;;;;;4877394;29;20554;-65
2023/09/29 01:25:28;;;;;;;12.10;9.07;;;16.70;99.90;;;;;;4859901;29;20719;-64
2023/09/29 01:27:56;;;;;;;11.70;8.65;;;16.60;99.90;;;;;;4858411;29;20743;-65
2023/09/29 01:30:25;;;;;;;17.15;8.75;;;16.60;99.90;;;;;;4883772;29;20242;-64
2023/09/29 01:32:53;;;;;;;11.75;9.00;;;16.50;99.90;;;;;;4889925;29;20225;-64
2023/09/29 01:35:23;;;;;;;12.77;9.60;;;16.50;99.90;;;;;;4868724;29;20658;-62
2023/09/29 01:37:55;;;;;;;14.25;9.10;;;16.50;99.90;;;;;;4871477;29;20201;-66
2023/09/29 01:40:23;;;;;;;12.50;8.80;;;16.40;99.90;;;;;;4859415;29;20222;-63
2023/09/29 01:42:51;;;;;;;13.18;9.30;;;16.30;99.90;;;;;;4871599;29;20201;-64
2023/09/29 01:45:21;;;;;;;13.68;9.93;;;16.20;99.90;;;;;;4879861;29;20284;-64
2023/09/29 01:47:48;;;;;;;16.25;9.10;;;16.20;99.90;;;;;;4865250;29;20289;-63
2023/09/29 01:50:20;;;;;;;12.93;9.05;;;16.20;99.90;;;;;;4872713;29;20213;-63
2023/09/29 01:52:49;;;;;;;17.65;9.52;;;16.20;99.90;;;;;;4874128;29;20202;-64
2023/09/29 01:55:22;;;;;;;12.38;9.15;;;16.20;99.90;;;;;;4875987;29;20793;-65
2023/09/29 01:57:51;;;;;;;11.68;9.63;;;16.20;99.90;;;;;;4874920;29;20211;-64
2023/09/29 02:03:44;;;;;;;12.38;8.77;;;16.40;99.90;;;;;;4875911;29;20191;-65
2023/09/29 02:06:13;;;;;;;13.98;8.55;;;16.60;99.90;;;;;;4872230;29;20205;-64
2023/09/29 02:08:41;;;;;;;12.70;8.57;;;16.70;99.90;;;;;;4874448;29;20218;-65
2023/09/29 02:11:08;;;;;;;12.68;9.55;;;16.80;99.90;;;;;;4871653;29;20636;-64
2023/09/29 02:13:35;;;;;;;11.45;8.75;;;16.90;99.90;;;;;;4897363;29;20224;-64
2023/09/29 02:16:08;;;;;;;10.35;8.63;;;16.90;99.90;;;;;;4885749;29;20236;-67
2023/09/29 02:18:35;;;;;;;11.60;7.68;;;17.00;99.90;;;;;;4869262;29;20206;-69
2023/09/29 02:21:08;;;;;;;10.13;7.78;;;17.00;99.90;;;;;;4869456;29;20727;-69
2023/09/29 02:23:36;;;;;;;11.02;7.70;;;17.00;99.90;;;;;;4874385;29;20189;-69
2023/09/29 02:26:04;;;;;;;10.20;7.18;;;17.00;99.90;;;;;;4877779;29;20604;-70
2023/09/29 02:28:32;;;;;;;10.63;7.95;;;16.90;99.90;;;;;;4877229;29;20248;-67
2023/09/29 02:31:02;;;;;;;9.10;7.03;;;16.80;99.90;;;;;;4879132;29;20273;-67
2023/09/29 02:33:31;;;;;;;11.00;8.55;;;16.70;99.90;;;;;;4886212;29;20228;-67
2023/09/29 02:35:58;;;;;;;10.88;7.97;;;16.60;99.90;;;;;;4867297;29;20292;-67
2023/09/29 02:38:26;;;;;;;12.93;8.25;;;16.60;99.90;;;;;;4863330;29;20198;-77
2023/09/29 02:40:54;;;;;;;12.63;8.05;;;16.60;99.90;;;;;;4869163;29;20297;-67
2023/09/29 02:43:21;;;;;;;14.65;7.97;;;16.60;99.90;;;;;;4869807;29;20194;-67
2023/09/29 02:45:51;;;;;;;10.25;7.65;;;16.60;99.90;;;;;;4868468;29;20270;-69
2023/09/29 02:48:17;;;;;;;9.85;7.57;;;16.70;99.90;;;;;;4871946;29;20586;-73
2023/09/29 02:50:46;;;;;;;10.43;7.95;;;16.70;99.90;;;;;;4872183;29;20220;-68
2023/09/29 02:53:14;;;;;;;10.48;7.07;;;16.70;99.90;;;;;;4889813;29;20233;-67
2023/09/29 02:55:43;;;;;;;16.65;8.07;;;16.80;99.90;;;;;;4865004;29;20209;-66
2023/09/29 02:58:11;;;;;;;12.50;6.82;;;16.80;99.90;;;;;;4875363;29;20209;-67
2023/09/29 03:00:41;;;;;;;8.43;6.75;;;16.80;99.90;;;;;;4873409;29;20290;-67
2023/09/29 03:03:09;;;;;;;9.32;7.43;;;16.80;99.90;;;;;;4867544;29;20207;-68
2023/09/29 03:05:39;;;;;;;9.43;6.78;;;16.80;99.90;;;;;;4875224;29;20194;-69
2023/09/29 03:08:07;;;;;;;9.85;6.90;;;16.90;99.90;;;;;;4866699;29;20675;-69
2023/09/29 03:10:34;;;;;;;8.60;5.95;;;16.90;99.90;;;;;;4872097;29;20205;-79
2023/09/29 03:13:06;;;;;;;8.00;6.30;;;16.90;99.90;;;;;;4877231;29;20204;-70
2023/09/29 03:15:33;;;;;;;10.13;6.03;;;17.00;99.90;;;;;;4876615;29;20241;-77
2023/09/29 03:18:01;;;;;;;7.55;6.05;;;16.90;99.90;;;;;;4871663;29;20253;-70
2023/09/29 03:20:28;;;;;;;12.23;6.00;;;17.00;99.90;;;;;;4873543;29;20225;-68
2023/09/29 03:22:58;;;;;;;17.05;6.18;;;17.00;99.90;;;;;;4891691;29;20631;-70
2023/09/29 03:25:26;;;;;;;10.57;6.78;;;17.00;99.90;;;;;;4887679;29;20202;-69
2023/09/29 03:27:54;;;;;;;7.45;5.95;;;17.00;99.90;;;;;;4884819;29;20229;-79
2023/09/29 03:30:21;;;;;;;7.90;5.38;;;17.00;99.90;;;;;;4878473;29;20887;-70
2023/09/29 03:32:48;;;;;;;11.55;5.82;;;17.00;99.90;;;;;;4867068;29;20230;-72
2023/09/29 03:35:15;;;;;;;9.60;6.40;;;17.00;99.90;;;;;;4884770;29;20202;-74
2023/09/29 03:37:45;;;;;;;12.07;5.47;;;16.90;99.90;;;;;;4866998;29;20194;-72
2023/09/29 03:40:18;;;;;;;7.38;5.07;;;16.90;99.90;;;;;;4876684;29;20534;-72
2023/09/29 03:42:45;;;;;;;5.70;4.30;;;16.90;99.90;;;;;;4875595;29;20564;-69
2023/09/29 03:45:12;;;;;;;10.20;4.97;;;17.00;99.90;;;;;;4877598;29;20273;-67
2023/09/29 03:47:41;;;;;;;10.40;6.47;;;17.20;99.90;;;;;;4872411;29;20900;-68
2023/09/29 03:50:11;;;;;;;6.40;5.03;;;17.50;99.90;;;;;;4874518;29;20213;-66
2023/09/29 03:52:40;;;;;;;4.95;4.25;;;17.60;99.90;;;;;;4879815;29;20674;-67
2023/09/29 03:55:09;;;;;;;9.13;5.03;;;17.50;99.90;;;;;;4879275;29;20688;-69
2023/09/29 03:57:37;;;;;;;6.78;4.40;;;17.50;99.90;;;;;;4873119;29;20204;-69
2023/09/29 04:00:12;;;;;;;13.57;5.30;;;17.40;99.90;;;;;;4862601;29;20195;-68
2023/09/29 04:02:40;;;;;;;7.60;4.40;;;17.30;99.90;;;;;;4875547;29;20197;-67
2023/09/29 04:05:09;;;;;;;7.32;5.10;;;17.30;99.90;;;;;;4882547;29;20277;-67
2023/09/29 04:07:37;;;;;;;6.18;4.95;;;17.30;99.90;;;;;;4886184;29;20189;-66
2023/09/29 04:10:04;;;;;;;7.60;4.60;;;17.30;99.90;;;;;;4874885;29;20194;-67
2023/09/29 04:12:31;;;;;;;8.75;4.95;;;17.30;99.90;;;;;;4872357;29;20567;-66
2023/09/29 04:14:58;;;;;;;6.30;4.30;;;17.30;99.90;;;;;;4867113;29;20283;-67
2023/09/29 04:17:25;;;;;;;6.68;4.68;;;17.30;99.90;;;;;;4890834;29;20214;-68
2023/09/29 04:19:55;;;;;;;5.10;4.35;;;17.30;99.90;;;;;;4873756;29;20607;-63
2023/09/29 04:22:26;;;;;;;4.47;3.83;;;17.30;99.90;;;;;;4869856;29;20213;-69
2023/09/29 04:24:54;;;;;;;4.22;3.40;;;17.40;99.90;;;;;;4870224;29;20563;-67
2023/09/29 04:27:21;;;;;;;4.18;3.78;;;17.40;99.90;;;;;;4859611;29;20202;-63
2023/09/29 04:29:50;;;;;;;8.35;4.40;;;17.50;99.90;;;;;;4877502;29;20570;-73
2023/09/29 04:32:19;;;;;;;8.45;4.18;;;17.50;99.90;;;;;;4872893;29;20663;-68
2023/09/29 04:34:46;;;;;;;9.27;4.70;;;17.50;99.90;;;;;;4874340;29;20293;-65
2023/09/29 04:37:13;;;;;;;7.05;4.10;;;17.50;99.90;;;;;;4874603;29;20364;-71
2023/09/29 04:39:41;;;;;;;5.97;4.40;;;17.50;99.90;;;;;;4872508;29;20210;-70
2023/09/29 04:42:09;;;;;;;8.57;4.95;;;17.50;99.90;;;;;;4858930;29;20739;-70
2023/09/29 04:44:37;;;;;;;6.05;4.18;;;17.50;99.90;;;;;;4899373;29;20689;-70
2023/09/29 04:47:07;;;;;;;7.00;4.32;;;17.40;99.90;;;;;;4863667;29;20656;-70
2023/09/29 04:49:34;;;;;;;5.90;4.35;;;17.50;99.90;;;;;;4870009;29;20190;-70
2023/09/29 04:52:01;;;;;;;5.10;4.18;;;17.50;99.90;;;;;;4869208;29;20206;-70
2023/09/29 04:54:28;;;;;;;8.30;3.85;;;17.50;99.90;;;;;;4877921;29;20205;-74
2023/09/29 04:56:55;;;;;;;5.63;4.00;;;17.50;99.90;;;;;;4875518;29;20205;-69
2023/09/29 04:59:22;;;;;;;5.22;3.35;;;17.50;99.90;;;;;;4871848;29;20194;-69
2023/09/29 05:01:49;;;;;;;6.78;3.95;;;17.50;99.90;;;;;;4871935;29;20317;-69
2023/09/29 05:04:16;;;;;;;6.90;4.13;;;17.50;99.90;;;;;;4896214;29;20554;-70
2023/09/29 05:06:43;;;;;;;5.10;3.72;;;17.50;99.90;;;;;;4890426;29;20281;-70
2023/09/29 05:09:11;;;;;;;6.72;4.45;;;17.40;99.90;;;;;;4872335;29;20217;-70
2023/09/29 05:11:38;;;;;;;4.35;3.80;;;17.40;99.90;;;;;;4870811;29;20675;-70
2023/09/29 05:14:06;;;;;;;8.15;4.22;;;17.50;99.90;;;;;;4875775;29;20233;-69
2023/09/29 05:16:33;;;;;;;5.95;4.05;;;17.50;99.90;;;;;;4864707;29;20608;-68
2023/09/29 05:19:01;;;;;;;6.15;4.30;;;17.50;99.90;;;;;;4874665;29;20592;-77
2023/09/29 05:21:28;;;;;;;4.72;3.67;;;17.50;99.90;;;;;;4874300;29;20225;-70
2023/09/29 05:23:55;;;;;;;6.55;4.07;;;17.40;99.90;;;;;;4883202;29;20233;-70
2023/09/29 05:26:22;;;;;;;5.97;3.78;;;17.50;99.90;;;;;;4878845;29;20307;-70
2023/09/29 05:28:51;;;;;;;6.30;4.10;;;17.40;99.90;;;;;;4863819;29;20206;-69
2023/09/29 05:31:18;;;;;;;4.25;3.47;;;17.40;99.90;;;;;;4869663;29;20288;-74
2023/09/29 05:33:48;;;;;;;7.30;4.30;;;17.40;99.90;;;;;;4869008;29;20222;-69
2023/09/29 05:36:15;;;;;;;7.13;3.97;;;17.40;99.90;;;;;;4872588;29;20228;-71
2023/09/29 05:38:43;;;;;;;5.68;3.95;;;17.40;99.90;;;;;;4883257;29;20653;-70
2023/09/29 05:41:10;;;;;;;7.50;4.47;;;17.40;99.90;;;;;;4867932;29;20312;-70
2023/09/29 05:43:37;;;;;;;4.05;3.60;;;17.40;99.90;;;;;;4881631;29;20559;-70
2023/09/29 05:46:04;;;;;;;5.13;3.67;;;17.50;99.90;;;;;;4881459;29;20198;-64
2023/09/29 05:48:31;;;;;;;8.13;3.72;;;17.50;99.90;;;;;;4874058;29;20201;-64
2023/09/29 05:51:00;;;;;;;10.95;7.40;;;17.50;99.90;;;;;;4887732;29;20660;-64
2023/09/29 05:53:27;;;;;;;7.57;4.22;;;17.70;99.90;;;;;;4878390;29;20193;-65
2023/09/29 05:55:54;;;;;;;7.00;3.90;;;17.90;99.90;;;;;;4872233;29;20199;-73
2023/09/29 05:58:22;;;;;;;5.45;3.03;;;18.00;99.90;;;;;;4874313;29;20543;-78
2023/09/29 06:00:49;;;;;;;15.15;8.40;;;18.10;99.90;;;;;;4869062;29;20201;-76
2023/09/29 06:03:16;;;;;;;16.10;11.15;;;18.10;99.90;;;;;;4871972;29;20682;-72
2023/09/29 06:05:43;;;;;;;7.75;5.10;;;18.30;99.90;;;;;;4864974;29;20203;-82
2023/09/29 06:08:10;;;;;;;13.80;9.02;;;18.40;99.90;;;;;;4862909;29;20812;-73
2023/09/29 06:10:37;;;;;;;7.85;5.72;;;18.40;99.90;;;;;;4869085;29;20198;-73
2023/09/29 06:13:05;;;;;;;4.72;3.45;;;18.40;99.90;;;;;;4863864;29;20261;-67
2023/09/29 06:15:32;;;;;;;4.57;2.97;;;18.30;99.90;;;;;;4866103;29;20268;-64
2023/09/29 06:18:00;;;;;;;6.78;3.30;;;18.20;99.90;;;;;;4874195;29;20792;-64
2023/09/29 06:20:27;;;;;;;4.70;2.50;;;18.10;99.90;;;;;;4868058;29;20221;-64
2023/09/29 06:22:54;;;;;;;4.65;3.10;;;18.10;99.90;;;;;;4874640;29;20647;-64
2023/09/29 06:25:22;;;;;;;6.13;2.72;;;18.10;99.90;;;;;;4866302;29;20218;-64
2023/09/29 06:27:49;;;;;;;4.35;2.92;;;18.30;99.90;;;;;;4885104;29;20415;-75
2023/09/29 06:30:16;;;;;;;6.07;3.72;;;18.30;99.90;;;;;;4870980;29;20694;-73
2023/09/29 06:32:43;;;;;;;5.35;3.30;;;18.40;99.90;;;;;;4876332;29;20683;-72
2023/09/29 06:35:12;;;;;;;9.35;4.13;;;18.50;99.90;;;;;;4864611;29;20463;-68
2023/09/29 06:37:39;;;;;;;6.28;3.92;;;18.60;99.90;;;;;;4879710;29;20847;-73
2023/09/29 06:40:10;;;;;;;4.38;3.15;;;18.60;99.90;;;;;;4867947;29;21250;-73
2023/09/29 06:42:38;;;;;;;5.15;3.20;;;18.80;99.90;;;;;;4877600;29;20210;-73
2023/09/29 06:45:07;;;;;;;7.32;2.97;;;18.90;99.90;;;;;;4876335;29;20253;-72
2023/09/29 06:47:34;;;;;;;5.18;2.88;;;19.00;99.90;;;;;;4871116;29;20202;-72
2023/09/29 06:50:01;;;;;;;5.28;2.95;;;19.10;99.90;;;;;;4874687;29;20216;-72
2023/09/29 06:52:28;;;;;;;5.25;3.10;;;19.10;99.90;;;;;;4872967;29;20204;-71
2023/09/29 06:54:55;;;;;;;6.05;2.42;;;19.10;99.90;;;;;;4868236;29;20694;-72
2023/09/29 06:57:23;;;;;;;3.83;2.90;;;19.00;99.90;;;;;;4866187;29;20259;-63
2023/09/29 06:59:50;;;;;;;5.70;2.97;;;19.00;99.90;;;;;;4862887;29;20234;-63
2023/09/29 07:02:17;;;;;;;4.40;2.90;;;18.90;99.90;;;;;;4864866;29;20313;-65
2023/09/29 07:04:44;;;;;;;7.78;2.53;;;19.00;99.90;;;;;;4870210;29;20588;-75
2023/09/29 07:07:12;;;;;;;5.95;3.05;;;19.00;99.90;;;;;;4853827;29;20715;-71
2023/09/29 07:09:39;;;;;;;5.05;2.58;;;19.10;99.90;;;;;;4866406;29;20301;-74
2023/09/29 07:12:09;;;;;;;4.93;2.72;;;19.20;99.90;;;;;;4881191;29;20812;-77
2023/09/29 07:14:37;;;;;;;5.55;2.15;;;19.30;99.90;;;;;;4865167;29;21521;-73
2023/09/29 07:17:04;;;;;;;2.90;2.20;;;19.40;99.90;;;;;;4871707;29;20207;-73
2023/09/29 07:19:32;;;;;;;4.05;2.67;;;19.50;99.90;;;;;;4867841;29;20713;-73
2023/09/29 07:22:11;;;;;;;3.45;2.58;;;19.60;99.90;;;;;;4867911;29;20416;-72
2023/09/29 07:24:42;;;;;;;3.08;2.53;;;19.80;99.90;;;;;;4864759;29;20622;-73
2023/09/29 07:27:12;;;;;;;2.65;2.40;;;19.80;99.90;;;;;;4868523;29;20209;-73
2023/09/29 07:29:39;;;;;;;4.35;2.53;;;19.80;99.90;;;;;;4868497;29;20606;-74
2023/09/29 07:32:06;;;;;;;9.13;2.75;;;19.90;99.90;;;;;;4870335;29;20305;-73
2023/09/29 07:34:33;;;;;;;2.60;2.33;;;20.00;99.90;;;;;;4878134;29;20226;-73
2023/09/29 07:37:00;;;;;;;5.53;2.50;;;20.10;99.90;;;;;;4874553;29;20232;-75
2023/09/29 07:39:27;;;;;;;3.67;2.10;;;20.30;99.90;;;;;;4860651;29;20198;-73
2023/09/29 07:41:54;;;;;;;6.97;2.55;;;20.40;99.90;;;;;;4868799;29;20713;-72
2023/09/29 07:44:21;;;;;;;4.97;2.03;;;20.60;99.90;;;;;;4875252;29;20651;-71
2023/09/29 07:46:52;;;;;;;5.93;2.38;;;20.60;99.90;;;;;;4868752;29;20193;-72
2023/09/29 07:49:21;;;;;;;6.75;2.45;;;20.90;99.90;;;;;;4861893;29;20635;-73
2023/09/29 07:51:49;;;;;;;6.20;2.28;;;21.00;99.90;;;;;;4872001;29;20209;-70
2023/09/29 07:54:17;;;;;;;3.92;2.03;;;21.00;99.90;;;;;;4871516;29;20211;-72
2023/09/29 07:56:47;;;;;;;2.60;2.30;;;21.10;99.90;;;;;;4859202;29;20297;-72
2023/09/29 07:59:14;;;;;;;4.13;2.42;;;21.30;99.90;;;;;;4869036;29;20292;-73
2023/09/29 08:01:43;;;;;;;3.50;2.13;;;21.30;99.90;;;;;;4863592;29;20312;-78
2023/09/29 08:04:10;;;;;;;7.60;2.40;;;21.30;99.90;;;;;;4869795;29;20309;-73
2023/09/29 08:06:37;;;;;;;5.03;2.10;;;21.30;99.90;;;;;;4871870;29;20736;-65
2023/09/29 08:09:06;;;;;;;3.08;2.30;;;21.20;99.90;;;;;;4859765;29;20205;-64
2023/09/29 08:11:33;;;;;;;4.53;2.42;;;21.40;99.90;;;;;;4870127;29;20225;-65
2023/09/29 08:14:00;;;;;;;4.55;2.15;;;21.40;99.90;;;;;;4884357;29;20269;-64
2023/09/29 08:16:27;;;;;;;2.22;1.60;;;21.40;99.90;;;;;;4866757;29;20225;-64
2023/09/29 08:18:54;;;;;;;3.75;1.60;;;21.40;99.90;;;;;;4868396;29;20199;-67
2023/09/29 08:21:22;;;;;;;4.22;1.98;;;21.50;99.90;;;;;;4878076;29;20963;-66
2023/09/29 08:23:49;;;;;;;3.35;1.92;;;21.80;99.90;;;;;;4865943;29;20637;-65
2023/09/29 08:26:16;;;;;;;4.70;2.10;;;22.30;99.90;;;;;;4863430;29;20200;-69
2023/09/29 08:28:44;;;;;;;3.78;1.85;;;22.60;99.90;;;;;;4865845;29;20258;-65
2023/09/29 08:31:15;;;;;;;3.05;2.00;;;22.50;99.90;;;;;;4866636;29;20204;-67
2023/09/29 08:33:43;;;;;;;2.15;1.83;;;22.30;99.90;;;;;;4871253;29;20776;-64
2023/09/29 08:36:17;;;;;;;2.72;1.67;;;22.30;99.90;;;;;;4863914;29;20198;-66
2023/09/29 08:38:44;;;;;;;6.20;1.60;;;22.50;99.90;;;;;;4858925;29;20686;-67
2023/09/29 08:41:12;;;;;;;2.78;1.85;;;22.70;99.90;;;;;;4866403;29;20205;-67
2023/09/29 08:43:40;;;;;;;4.65;2.20;;;23.10;99.90;;;;;;4864742;29;20225;-65
2023/09/29 08:46:16;;;;;;;2.42;1.70;;;26.50;99.90;;;;;;4872492;29;20572;-65
2023/09/29 08:48:44;;;;;;;2.30;1.88;;;30.20;99.90;;;;;;4862911;29;20199;-66
2023/09/29 08:51:13;;;;;;;3.72;1.80;;;29.70;99.90;;;;;;4863819;29;20438;-66
2023/09/29 08:53:42;;;;;;;4.88;2.00;;;27.80;99.90;;;;;;4871994;29;20206;-65
2023/09/29 08:56:14;;;;;;;3.20;1.77;;;27.80;99.90;;;;;;4866282;29;20217;-65
2023/09/29 08:58:42;;;;;;;3.50;2.10;;;26.40;99.90;;;;;;4859781;29;20571;-66
2023/09/29 09:01:09;;;;;;;3.42;2.20;;;26.40;99.90;;;;;;4862204;29;20670;-64
2023/09/29 09:03:36;;;;;;;5.32;2.40;;;26.80;99.90;;;;;;4863904;29;20222;-66
2023/09/29 09:06:24;;;;;;;3.97;2.35;;;26.10;99.90;;;;;;4861863;29;20277;-67
2023/09/29 09:08:55;;;;;;;2.58;2.10;;;26.00;99.90;;;;;;4873224;29;20198;-64
2023/09/29 09:11:23;;;;;;;2.20;2.00;;;25.80;99.90;;;;;;4864405;29;20685;-65
2023/09/29 09:14:03;;;;;;;5.25;2.28;;;25.60;99.90;;;;;;4859958;29;20221;-67
2023/09/29 09:16:36;;;;;;;4.13;2.30;;;25.60;99.90;;;;;;4877190;29;20463;-67
2023/09/29 09:19:12;;;;;;;3.03;2.13;;;29.00;99.90;;;;;;4861814;29;20202;-65
2023/09/29 09:21:41;;;;;;;3.95;2.15;;;31.40;99.90;;;;;;4877630;29;20205;-65
2023/09/29 09:24:22;;;;;;;4.82;1.98;;;33.50;99.90;;;;;;4866979;29;20218;-65
2023/09/29 09:26:49;;;;;;;2.40;2.15;;;30.50;99.90;;;;;;4866378;29;20201;-66
2023/09/29 09:29:18;;;;;;;4.55;2.47;;;30.30;99.90;;;;;;4862526;29;20197;-65
2023/09/29 09:31:55;;;;;;;5.68;2.70;;;30.40;99.90;;;;;;4859422;29;20586;-72
2023/09/29 09:34:32;;;;;;;2.42;2.22;;;28.60;99.90;;;;;;4863829;29;20198;-65
2023/09/29 09:36:59;;;;;;;3.70;2.33;;;31.20;99.90;;;;;;4865347;29;20701;-66
2023/09/29 09:39:28;;;;;;;2.67;2.20;;;31.80;99.90;;;;;;4865410;29;20277;-65
2023/09/29 09:41:56;;;;;;;2.50;2.30;;;31.70;99.90;;;;;;4875363;29;20285;-68
2023/09/29 09:44:25;;;;;;;4.32;2.40;;;30.00;99.90;;;;;;4863804;29;20202;-65
2023/09/29 09:46:57;;;;;;;2.42;2.10;;;27.60;99.90;;;;;;4858619;29;20202;-65
2023/09/29 09:49:29;;;;;;;2.83;2.20;;;26.20;99.90;;;;;;4862676;29;20571;-65
2023/09/29 09:52:03;;;;;;;5.70;2.67;;;25.30;99.90;;;;;;4862607;29;20517;-65
2023/09/29 09:54:36;;;;;;;2.15;1.90;;;24.80;99.90;;;;;;4873470;29;20205;-63
2023/09/29 09:57:08;;;;;;;3.00;2.10;;;24.80;99.90;;;;;;4857984;29;20566;-63
2023/09/29 09:59:36;;;;;;;4.55;2.67;;;24.50;99.90;;;;;;4863119;29;20201;-65
2023/09/29 10:02:06;;;;;;;3.22;2.40;;;24.40;99.90;;;;;;4864188;29;20583;-65
2023/09/29 10:04:40;;;;;;;2.75;2.40;;;24.40;99.90;;;;;;4876916;29;20226;-68
2023/09/29 10:07:09;;;;;;;3.05;2.28;;;24.30;99.90;;;;;;4870631;29;20579;-65
2023/09/29 10:09:44;;;;;;;3.38;2.35;;;24.40;99.90;;;;;;4878010;29;20292;-64
2023/09/29 10:12:25;;;;;;;3.10;2.05;;;24.40;99.90;;;;;;4866790;29;20208;-64
2023/09/29 10:14:52;;;;;;;4.80;2.38;;;24.70;99.90;;;;;;4863958;29;20583;-65
2023/09/29 10:17:20;;;;;;;2.95;2.25;;;24.80;99.90;;;;;;4862591;29;20276;-67
2023/09/29 10:19:52;;;;;;;3.17;2.38;;;25.10;99.90;;;;;;4878025;29;20198;-69
2023/09/29 10:22:24;;;;;;;2.63;2.05;;;25.20;99.90;;;;;;4855836;29;20214;-70
2023/09/29 10:24:56;;;;;;;4.68;2.08;;;25.20;99.90;;;;;;4868992;29;20194;-74
2023/09/29 10:27:33;;;;;;;3.13;2.13;;;24.80;99.90;;;;;;4862773;29;20594;-75
2023/09/29 10:30:16;;;;;;;5.05;2.35;;;24.40;99.90;;;;;;4865490;29;20690;-72
2023/09/29 10:32:48;;;;;;;4.70;2.20;;;24.10;99.90;;;;;;4860905;29;20297;-66
2023/09/29 10:35:21;;;;;;;4.80;2.20;;;24.30;99.90;;;;;;4870702;29;20221;-70
2023/09/29 10:37:55;;;;;;;2.95;2.20;;;25.00;99.90;;;;;;4866891;29;20686;-71
2023/09/29 10:40:25;;;;;;;4.28;2.00;;;25.30;99.90;;;;;;4865194;29;20296;-69
2023/09/29 10:42:54;;;;;;;3.42;2.20;;;25.20;99.90;;;;;;4859979;29;20218;-69
2023/09/29 10:45:31;;;;;;;2.90;2.15;;;25.20;99.90;;;;;;4868230;29;20682;-71
2023/09/29 10:48:07;;;;;;;3.35;2.30;;;25.10;99.90;;;;;;4863762;29;20194;-67
2023/09/29 10:50:41;;;;;;;2.72;2.40;;;25.00;99.90;;;;;;4872462;29;20198;-69
2023/09/29 10:53:09;;;;;;;3.45;2.05;;;25.50;99.90;;;;;;4866424;29;20274;-69
2023/09/29 10:55:45;;;;;;;4.57;2.50;;;26.50;99.90;;;;;;4865001;29;20546;-68
2023/09/29 10:58:13;;;;;;;3.75;2.20;;;27.70;99.90;;;;;;4887591;29;20198;-68
2023/09/29 11:00:48;;;;;;;4.25;2.72;;;28.60;99.90;;;;;;4863954;29;20218;-69
2023/09/29 11:03:23;;;;;;;3.42;2.40;;;29.30;99.90;;;;;;4872505;29;20650;-68
2023/09/29 11:05:53;;;;;;;2.40;1.98;;;28.60;99.90;;;;;;4880213;29;20284;-70
2023/09/29 11:08:30;;;;;;;5.80;2.55;;;27.10;99.90;;;;;;4861207;29;20278;-68
2023/09/29 11:11:03;;;;;;;3.35;2.50;;;25.70;99.90;;;;;;4880184;29;20202;-68
2023/09/29 11:13:31;;;;;;;3.17;2.40;;;25.10;99.90;;;;;;4864290;29;20600;-68
2023/09/29 11:15:59;;;;;;;6.28;2.60;;;25.00;99.90;;;;;;4871212;29;20714;-64
2023/09/29 11:18:34;;;;;;;3.15;2.85;;;24.80;99.90;;;;;;4874089;29;20202;-65
2023/09/29 11:21:10;;;;;;;3.42;2.50;;;24.80;99.90;;;;;;4874596;29;20228;-64
2023/09/29 11:23:48;;;;;;;4.18;2.70;;;25.30;99.90;;;;;;4867656;29;20811;-65
2023/09/29 11:26:16;;;;;;;5.85;3.00;;;25.40;99.90;;;;;;4867843;29;20197;-64
2023/09/29 11:28:47;;;;;;;4.00;2.78;;;25.30;99.90;;;;;;4868978;29;20198;-70
2023/09/29 11:31:15;;;;;;;2.75;2.13;;;24.60;99.90;;;;;;4862312;29;20234;-68
2023/09/29 11:33:44;;;;;;;5.60;2.60;;;24.10;99.90;;;;;;4865468;29;20229;-64
2023/09/29 11:36:18;;;;;;;5.15;2.75;;;23.60;99.90;;;;;;4876997;29;20672;-69
2023/09/29 11:38:45;;;;;;;4.95;2.60;;;23.30;99.90;;;;;;4866083;29;20208;-81
2023/09/29 11:41:15;;;;;;;4.32;2.85;;;23.20;99.90;;;;;;4868492;29;20568;-64
2023/09/29 11:43:43;;;;;;;3.33;2.13;;;23.20;99.90;;;;;;4867352;29;21022;-68
2023/09/29 11:46:13;;;;;;;7.22;2.55;;;23.10;99.90;;;;;;4867173;29;20785;-64
2023/09/29 11:48:42;;;;;;;5.22;2.85;;;23.30;99.90;;;;;;4875772;29;20206;-68
2023/09/29 11:51:10;;;;;;;3.63;2.15;;;23.60;99.90;;;;;;4874167;29;20214;-69
2023/09/29 11:53:43;;;;;;;6.22;2.33;;;23.70;99.90;;;;;;4865752;29;20213;-69
2023/09/29 11:56:11;;;;;;;5.32;2.67;;;23.90;99.90;;;;;;4864040;29;20263;-69
2023/09/29 11:58:39;;;;;;;3.88;2.30;;;24.30;99.90;;;;;;4866877;29;20205;-67
2023/09/29 12:01:08;;;;;;;4.85;2.80;;;25.40;99.90;;;;;;4876378;29;20226;-70
2023/09/29 12:03:36;;;;;;;2.78;2.20;;;26.10;99.90;;;;;;4865962;29;20222;-69
2023/09/29 12:06:03;;;;;;;4.80;2.42;;;26.80;99.90;;;;;;4877649;29;20301;-71
2023/09/29 12:08:30;;;;;;;6.32;3.03;;;27.00;99.90;;;;;;4864452;29;20198;-66
2023/09/29 12:10:58;;;;;;;5.25;3.10;;;26.80;99.90;;;;;;4864530;29;20189;-63
2023/09/29 12:13:26;;;;;;;5.10;3.05;;;26.40;99.90;;;;;;4859754;29;20281;-67
2023/09/29 12:15:53;;;;;;;6.55;3.25;;;26.20;99.90;;;;;;4868763;29;20240;-70
2023/09/29 12:18:20;;;;;;;5.78;3.30;;;26.30;99.90;;;;;;4863315;29;20216;-68
2023/09/29 12:20:52;;;;;;;4.30;2.97;;;26.50;99.90;;;;;;4862073;29;20196;-66
2023/09/29 12:23:19;;;;;;;12.15;5.68;;;26.70;99.90;;;;;;4878447;29;20789;-69
2023/09/29 12:25:47;;;;;;;10.82;4.82;;;26.60;99.90;;;;;;4865554;29;20224;-64
2023/09/29 12:28:17;;;;;;;9.93;4.03;;;26.40;99.90;;;;;;4863617;29;20662;-68
2023/09/29 12:30:44;;;;;;;5.47;3.38;;;26.30;99.90;;;;;;4881414;29;20636;-69
2023/09/29 12:33:11;;;;;;;6.60;3.10;;;26.50;99.90;;;;;;4866445;29;20226;-65
2023/09/29 12:35:39;;;;;;;6.63;3.35;;;26.20;99.90;;;;;;4867981;29;20217;-68
2023/09/29 12:38:06;;;;;;;7.60;3.00;;;26.10;99.90;;;;;;4872480;29;20196;-68
2023/09/29 12:40:34;;;;;;;8.45;3.13;;;26.30;99.90;;;;;;4862407;29;20281;-64
2023/09/29 12:43:02;;;;;;;6.63;3.40;;;26.70;99.90;;;;;;4885898;29;20234;-65
2023/09/29 12:45:30;;;;;;;8.02;3.53;;;26.70;99.90;;;;;;4870833;29;20222;-65
2023/09/29 12:47:57;;;;;;;10.23;4.97;;;26.50;99.90;;;;;;4861700;29;20679;-64
2023/09/29 12:50:24;;;;;;;12.13;5.15;;;26.30;99.90;;;;;;4863366;29;20278;-64
2023/09/29 12:52:52;;;;;;;9.32;5.15;;;26.30;99.90;;;;;;4869098;29;20230;-71
2023/09/29 12:55:19;;;;;;;10.52;5.85;;;25.60;99.90;;;;;;4862144;29;20222;-65
2023/09/29 12:57:47;;;;;;;13.02;4.22;;;25.40;99.90;;;;;;4870714;29;20701;-64